Terminal Aerodrome Forecast
Issued by NWS

Home | Current Version | Previous Version | Text Only | Print | Product List | Glossary On
Versions: 1 2 3 4 5 6 7 8 9 10 11 12 13 14 15 16 17 18 19 20 21 22 23 24 25 26 27 28 29 30 31
000
FTUS46 KOTX 222331
TAFSFF
TAF
KSFF 222331Z 2300/2324 24008KT P6SM SCT150
     FM230600 02003KT P6SM SCT015 BKN250
     FM231200 00000KT P6SM FEW015 OVC060
     FM232200 18004KT P6SM VCSH OVC035=

USA.gov is the U.S. government's official web portal to all federal, state and local government web resources and services.